createdAt,value
2023-03-16T00:03:30.848Z,101648.94
2023-03-16T00:08:35.528Z,101637.69
2023-03-16T00:13:42.886Z,101641.06
2023-03-16T00:18:46.692Z,101627.97
2023-03-16T00:23:50.488Z,101629.94
2023-03-16T00:28:55.515Z,101622.63
2023-03-16T00:33:59.272Z,101620.19
2023-03-16T00:39:02.965Z,101622.31
2023-03-16T00:44:09.673Z,101620.63
2023-03-16T00:49:13.397Z,101608.25
2023-03-16T00:54:18.897Z,101613.53
2023-03-16T00:59:26.206Z,101602.84
2023-03-16T01:04:30.242Z,101603.94
2023-03-16T01:09:37.127Z,101586.41
2023-03-16T01:14:42.995Z,101572.91
2023-03-16T01:19:47.280Z,101568.78
2023-03-16T01:24:51.181Z,101553.91
2023-03-16T01:29:56.205Z,101545.00
2023-03-16T01:35:00.288Z,101535.75
2023-03-16T01:40:06.758Z,101543.19
2023-03-16T01:45:44.888Z,101534.50
2023-03-16T01:50:52.339Z,101531.81
2023-03-16T01:55:56.304Z,101535.50
2023-03-16T02:01:01.001Z,101526.22
2023-03-16T02:06:12.118Z,101530.47
2023-03-16T02:11:18.584Z,101533.59
2023-03-16T02:16:23.915Z,101522.97
2023-03-16T02:21:36.457Z,101515.72
2023-03-16T02:26:47.650Z,101515.16
2023-03-16T02:31:54.442Z,101506.44
2023-03-16T02:36:59.501Z,101493.94
2023-03-16T02:42:04.206Z,101494.72
2023-03-16T02:47:16.367Z,101489.59
2023-03-16T02:52:20.198Z,101485.34
2023-03-16T02:57:24.073Z,101481.56
2023-03-16T03:02:30.413Z,101483.69
2023-03-16T03:07:34.211Z,101475.31
2023-03-16T03:12:38.638Z,101478.41
2023-03-16T03:17:45.048Z,101474.63
2023-03-16T03:22:52.689Z,101479.88
2023-03-16T03:27:56.539Z,101477.00
2023-03-16T03:33:02.725Z,101473.28
2023-03-16T03:38:08.107Z,101477.19
2023-03-16T03:43:12.651Z,101472.41
2023-03-16T03:48:19.025Z,101463.94
2023-03-16T03:53:22.810Z,101454.97
2023-03-16T03:58:28.542Z,101453.87
2023-03-16T04:03:33.848Z,101444.28
2023-03-16T04:08:37.941Z,101436.13
2023-03-16T04:13:44.693Z,101433.22
2023-03-16T04:18:49.909Z,101442.72
2023-03-16T04:23:54.741Z,101427.78
2023-03-16T04:28:59.921Z,101434.56
2023-03-16T04:34:05.519Z,101430.09
2023-03-16T04:39:10.394Z,101428.75
2023-03-16T04:44:14.746Z,101427.13
2023-03-16T04:49:20.391Z,101421.88
2023-03-16T04:54:25.228Z,101421.75
2023-03-16T04:59:29.286Z,101422.19
2023-03-16T05:04:35.778Z,101415.47
2023-03-16T05:09:40.230Z,101414.94
2023-03-16T05:14:44.384Z,101416.06
2023-03-16T05:19:50.402Z,101421.06
2023-03-16T05:24:54.952Z,101407.78
2023-03-16T05:29:58.965Z,101403.31
2023-03-16T05:35:07.112Z,101390.28
2023-03-16T05:40:17.234Z,101395.63
2023-03-16T05:45:23.528Z,101372.47
2023-03-16T05:50:29.885Z,101380.16
2023-03-16T05:55:33.904Z,101377.81
2023-03-16T06:00:39.438Z,101374.56
2023-03-16T06:05:45.707Z,101374.25
2023-03-16T06:10:50.794Z,101380.38
2023-03-16T06:15:54.968Z,101382.69
2023-03-16T06:21:00.230Z,101379.03
2023-03-16T06:26:05.310Z,101365.53
2023-03-16T06:31:11.068Z,101356.97
2023-03-16T06:36:17.450Z,101365.06
2023-03-16T06:41:22.382Z,101356.50
2023-03-16T06:46:26.453Z,101354.59
2023-03-16T06:51:32.429Z,101345.03
2023-03-16T06:56:36.524Z,101346.78
2023-03-16T07:01:40.844Z,101348.69
2023-03-16T07:06:46.940Z,101341.44
2023-03-16T07:11:51.439Z,101337.41
2023-03-16T07:16:55.367Z,101332.72
2023-03-16T07:22:02.748Z,101330.91
2023-03-16T07:27:08.237Z,101329.00
2023-03-16T07:32:13.302Z,101327.22
2023-03-16T07:37:25.106Z,101334.44
2023-03-16T07:42:30.428Z,101331.97
2023-03-16T07:47:35.923Z,101343.00
2023-03-16T07:52:41.471Z,101334.16
2023-03-16T07:57:47.915Z,101331.00
2023-03-16T08:02:54.090Z,101327.50
2023-03-16T08:08:01.164Z,101332.91
2023-03-16T08:13:05.940Z,101339.47
2023-03-16T08:18:10.260Z,101328.44
2023-03-16T08:23:15.593Z,101340.69
2023-03-16T08:28:21.698Z,101342.75
2023-03-16T08:33:26.297Z,101337.34
2023-03-16T08:38:32.213Z,101331.25
2023-03-16T08:43:37.685Z,101336.09
2023-03-16T08:48:42.606Z,101325.72
2023-03-16T08:53:47.872Z,101327.63
2023-03-16T08:58:52.156Z,101315.25
2023-03-16T09:03:55.947Z,101306.22
2023-03-16T09:09:01.067Z,101309.53
2023-03-16T09:14:04.901Z,101306.00
2023-03-16T09:19:08.656Z,101306.41
2023-03-16T09:24:14.339Z,101307.91
2023-03-16T09:29:18.897Z,101297.19
2023-03-16T09:39:29.254Z,101288.47
2023-03-16T09:44:43.139Z,101300.63
2023-03-16T09:49:48.840Z,101297.66
2023-03-16T09:54:59.751Z,101284.81
2023-03-16T10:00:17.265Z,101274.44
2023-03-16T10:05:23.569Z,101283.06
2023-03-16T10:10:44.548Z,101276.63
2023-03-16T10:15:50.471Z,101257.09
2023-03-16T10:20:55.518Z,101267.22
2023-03-16T10:26:00.619Z,101257.84
2023-03-16T10:31:04.621Z,101259.91
2023-03-16T10:36:17.104Z,101258.66
2023-03-16T10:41:28.384Z,101254.00
2023-03-16T10:46:38.834Z,101248.13
2023-03-16T10:51:44.262Z,101241.47
2023-03-16T10:56:50.584Z,101240.91
2023-03-16T11:01:55.290Z,101234.91
2023-03-16T11:06:59.596Z,101221.44
2023-03-16T11:12:17.296Z,101219.19
2023-03-16T11:17:29.242Z,101209.78
2023-03-16T11:22:34.100Z,101218.50
2023-03-16T11:27:47.032Z,101212.94
2023-03-16T11:32:53.418Z,101187.94
2023-03-16T11:38:09.422Z,101177.97
2023-03-16T11:43:28.557Z,101181.00
2023-03-16T11:48:38.662Z,101168.66
2023-03-16T11:53:50.813Z,101157.22
2023-03-16T11:59:27.997Z,101165.19
2023-03-16T12:04:46.600Z,101158.87
2023-03-16T12:10:22.329Z,101168.09
2023-03-16T12:15:36.071Z,101170.41
2023-03-16T12:20:46.545Z,101138.84
2023-03-16T12:25:52.337Z,101145.34
2023-03-16T12:31:12.136Z,101118.19
2023-03-16T12:36:36.848Z,101120.84
2023-03-16T12:41:56.714Z,101123.75
2023-03-16T12:47:09.487Z,101089.88
2023-03-16T12:52:14.809Z,101092.88
2023-03-16T12:57:19.220Z,101070.50
2023-03-16T13:02:29.817Z,101051.97
2023-03-16T13:07:33.613Z,101051.34
2023-03-16T13:12:42.035Z,101057.91
2023-03-16T13:17:49.396Z,101056.66
2023-03-16T13:23:09.634Z,101042.94
2023-03-16T13:28:15.125Z,101031.44
2023-03-16T13:33:23.172Z,101023.63
2023-03-16T13:38:29.529Z,101005.19
2023-03-16T13:43:36.037Z,100991.16
2023-03-16T13:48:41.838Z,101001.62
2023-03-16T13:53:46.447Z,101005.84
2023-03-16T13:58:52.783Z,100998.50
2023-03-16T14:04:03.212Z,100990.00
2023-03-16T14:09:09.343Z,100970.97
2023-03-16T14:14:17.503Z,100968.31
2023-03-16T14:19:28.255Z,100955.03
2023-03-16T14:24:35.481Z,100945.91
2023-03-16T14:29:43.590Z,100954.56
2023-03-16T14:34:51.989Z,100935.84
2023-03-16T14:40:02.735Z,100933.56
2023-03-16T14:45:14.146Z,100944.03
2023-03-16T14:50:25.184Z,100931.38
2023-03-16T14:55:29.220Z,100922.72
2023-03-16T15:00:42.644Z,100927.09
2023-03-16T15:05:55.919Z,100913.03
2023-03-16T15:11:01.880Z,100913.97
2023-03-16T15:16:06.721Z,100905.09
2023-03-16T15:21:14.280Z,100905.13
2023-03-16T15:26:24.901Z,100884.87
2023-03-16T15:31:29.095Z,100875.13
2023-03-16T15:36:34.197Z,100880.66
2023-03-16T15:41:47.293Z,100887.13
2023-03-16T15:46:51.705Z,100879.88
2023-03-16T15:51:56.792Z,100867.81
2023-03-16T15:57:00.877Z,100863.81
2023-03-16T16:02:04.924Z,100862.72
2023-03-16T16:07:12.589Z,100861.03
2023-03-16T16:12:17.843Z,100853.31
2023-03-16T16:17:36.459Z,100849.97
2023-03-16T16:22:46.486Z,100856.75
2023-03-16T16:27:50.715Z,100841.34
2023-03-16T16:32:56.949Z,100830.06
2023-03-16T16:38:02.823Z,100835.41
2023-03-16T16:43:07.702Z,100825.62
2023-03-16T16:48:29.832Z,100839.03
2023-03-16T16:53:34.940Z,100839.00
2023-03-16T16:58:39.455Z,100837.03
2023-03-16T17:03:43.257Z,100843.09
2023-03-16T17:08:50.021Z,100835.81
2023-03-16T17:13:55.480Z,100836.41
2023-03-16T17:18:59.729Z,100830.59
2023-03-16T17:24:04.998Z,100829.59
2023-03-16T17:29:18.470Z,100830.56
2023-03-16T17:34:24.194Z,100830.28
2023-03-16T17:39:31.035Z,100829.59
2023-03-16T17:44:39.107Z,100831.06
2023-03-16T17:49:44.831Z,100834.97
2023-03-16T17:54:52.087Z,100831.81
2023-03-16T17:59:56.454Z,100839.69
2023-03-16T18:05:00.652Z,100826.91
2023-03-16T18:10:06.308Z,100831.75
2023-03-16T18:15:16.598Z,100848.28
2023-03-16T18:20:23.309Z,100852.41
2023-03-16T18:25:39.055Z,100843.53
2023-03-16T18:30:44.958Z,100846.69
2023-03-16T18:35:49.538Z,100846.84
2023-03-16T18:40:54.774Z,100836.63
2023-03-16T18:45:58.728Z,100833.94
2023-03-16T18:51:03.259Z,100828.16
2023-03-16T18:56:08.518Z,100818.56
2023-03-16T19:01:22.292Z,100812.53
2023-03-16T19:06:30.149Z,100815.50
2023-03-16T19:11:38.911Z,100802.03
2023-03-16T19:16:42.847Z,100799.72
2023-03-16T19:21:46.750Z,100796.00
2023-03-16T19:26:52.245Z,100809.06
2023-03-16T19:31:57.311Z,100794.00
2023-03-16T19:37:01.071Z,100783.22
2023-03-16T19:42:07.478Z,100776.06
2023-03-16T19:47:26.010Z,100775.34
2023-03-16T19:52:31.734Z,100770.94
2023-03-16T19:57:37.025Z,100768.41
2023-03-16T20:02:41.605Z,100756.00
2023-03-16T20:07:45.758Z,100754.69
2023-03-16T20:12:52.790Z,100755.75
2023-03-16T20:17:57.204Z,100751.16
2023-03-16T20:23:01.576Z,100749.41
2023-03-16T20:28:15.480Z,100731.56
2023-03-16T20:33:22.710Z,100734.00
2023-03-16T20:38:27.119Z,100728.56
2023-03-16T20:43:33.398Z,100723.38
2023-03-16T20:48:37.182Z,100724.59
2023-03-16T20:53:41.130Z,100710.41
2023-03-16T20:58:47.948Z,100717.41
2023-03-16T21:03:55.138Z,100711.87
2023-03-16T21:09:00.945Z,100712.69
2023-03-16T21:14:08.388Z,100723.66
2023-03-16T21:19:16.900Z,100707.91
2023-03-16T21:24:20.527Z,100712.63
2023-03-16T21:29:25.759Z,100720.12
2023-03-16T21:34:34.792Z,100698.31
2023-03-16T21:39:38.743Z,100699.75
2023-03-16T21:44:43.870Z,100697.84
2023-03-16T21:49:47.621Z,100694.31
2023-03-16T21:54:52.218Z,100672.38
2023-03-16T21:59:57.296Z,100673.47
2023-03-16T22:05:01.078Z,100674.97
2023-03-16T22:10:14.961Z,100680.03
2023-03-16T22:15:20.869Z,100672.94
2023-03-16T22:20:27.606Z,100687.53
2023-03-16T22:25:31.466Z,100710.03
2023-03-16T22:30:36.843Z,100695.56
2023-03-16T22:35:40.779Z,100685.63
2023-03-16T22:40:44.682Z,100670.59
2023-03-16T22:45:49.709Z,100653.13
2023-03-16T22:50:54.270Z,100659.62
2023-03-16T22:55:58.160Z,100656.81
2023-03-16T23:01:15.828Z,100665.94
2023-03-16T23:06:22.048Z,100674.22
2023-03-16T23:11:28.659Z,100675.19
2023-03-16T23:16:36.493Z,100686.41
2023-03-16T23:21:40.288Z,100685.56
2023-03-16T23:26:44.433Z,100677.91
2023-03-16T23:31:50.091Z,100652.12
2023-03-16T23:36:54.113Z,100649.63
2023-03-16T23:41:57.937Z,100669.31
2023-03-16T23:47:03.224Z,100676.41
2023-03-16T23:52:07.413Z,100678.78
2023-03-16T23:57:11.216Z,100682.78
